Time;durP1;ratioP1;P1;durP2;ratioP2;P2;SDS_P1;SDS_P2;PMS_P1;PMS_P2;Temp;Humidity;BMP_temperature;BMP_pressure;BME280_temperature;BME280_humidity;BME280_pressure;Samples;Min_cycle;Max_cycle;Signal;HPM_P1;HPM_P2
2022/05/03 00:01:27;;;;;;;8.30;6.03;;;12.50;93.10;;;;;;2079220;28;20033;-68
2022/05/03 00:02:51;;;;;;;6.00;5.50;;;12.50;94.20;;;;;;2076788;28;20037;-68
2022/05/03 00:04:06;;;;;;;8.05;4.80;;;12.40;94.40;;;;;;2077274;28;20030;-68
2022/05/03 00:05:23;;;;;;;6.15;5.18;;;12.40;93.90;;;;;;2083760;28;20018;-68
2022/05/03 00:06:50;;;;;;;7.82;6.00;;;12.40;94.00;;;;;;2077909;28;20159;-69
2022/05/03 00:08:23;;;;;;;7.57;5.63;;;12.40;94.40;;;;;;2076219;28;20036;-68
2022/05/03 00:10:10;;;;;;;7.57;6.45;;;12.30;94.50;;;;;;2080266;28;20114;-68
2022/05/03 00:11:27;;;;;;;6.28;5.78;;;12.30;94.40;;;;;;2071369;28;20156;-69
2022/05/03 00:12:34;;;;;;;6.78;6.10;;;12.20;92.60;;;;;;2080632;28;20032;-69
2022/05/03 00:14:04;;;;;;;5.75;5.15;;;12.20;91.80;;;;;;2082893;28;20032;-69
2022/05/03 00:15:06;;;;;;;5.05;4.68;;;12.10;91.40;;;;;;2082834;28;20034;-69
2022/05/03 00:16:07;;;;;;;8.57;6.18;;;12.10;90.60;;;;;;2081146;28;20032;-69
2022/05/03 00:17:09;;;;;;;6.50;5.70;;;12.00;90.40;;;;;;2080584;28;20377;-68
2022/05/03 00:18:11;;;;;;;6.25;5.55;;;12.00;89.80;;;;;;2080906;28;20030;-68
2022/05/03 00:19:12;;;;;;;8.18;5.57;;;12.00;89.00;;;;;;2080712;28;20018;-68
2022/05/03 00:20:14;;;;;;;8.00;6.32;;;12.00;89.00;;;;;;2082969;28;20112;-68
2022/05/03 00:21:14;;;;;;;6.35;5.75;;;11.90;89.90;;;;;;2081326;28;20130;-68
2022/05/03 00:22:15;;;;;;;6.75;5.95;;;11.90;90.10;;;;;;2082881;28;20063;-68
2022/05/03 00:23:15;;;;;;;9.70;5.70;;;11.90;90.10;;;;;;2081047;28;20452;-68
2022/05/03 00:24:17;;;;;;;6.03;5.40;;;11.90;90.00;;;;;;2081884;28;20619;-68
2022/05/03 00:25:19;;;;;;;5.53;5.05;;;11.90;90.10;;;;;;2081136;28;20377;-68
2022/05/03 00:26:20;;;;;;;6.68;5.93;;;11.80;90.10;;;;;;2080462;28;20056;-68
2022/05/03 00:27:27;;;;;;;6.13;5.47;;;11.80;90.00;;;;;;2076588;28;20021;-68
2022/05/03 00:28:28;;;;;;;7.10;5.65;;;11.80;90.00;;;;;;2080463;28;20040;-68
2022/05/03 00:29:29;;;;;;;9.20;5.82;;;11.80;90.30;;;;;;2080355;28;20013;-68
2022/05/03 00:30:31;;;;;;;5.75;5.25;;;11.80;90.40;;;;;;2079909;28;20025;-69
2022/05/03 00:31:32;;;;;;;6.85;6.22;;;11.80;91.00;;;;;;2082221;28;20101;-68
2022/05/03 00:32:34;;;;;;;7.72;5.93;;;11.80;91.90;;;;;;2080140;28;20032;-68
2022/05/03 00:33:35;;;;;;;6.35;5.60;;;11.70;91.60;;;;;;2081118;28;20363;-68
2022/05/03 00:34:37;;;;;;;8.75;6.43;;;11.70;90.70;;;;;;2080545;28;20033;-68
2022/05/03 00:35:38;;;;;;;5.78;5.20;;;11.70;90.90;;;;;;2082288;28;20393;-68
2022/05/03 00:36:39;;;;;;;7.72;5.60;;;11.60;90.30;;;;;;2083505;28;20110;-68
2022/05/03 00:37:39;;;;;;;7.18;6.15;;;11.60;90.10;;;;;;2080450;28;20682;-68
2022/05/03 00:38:40;;;;;;;7.75;5.90;;;11.60;90.60;;;;;;2079980;28;20025;-68
2022/05/03 00:39:41;;;;;;;6.90;6.20;;;11.60;91.20;;;;;;2081165;28;20079;-69
2022/05/03 00:40:52;;;;;;;8.40;6.85;;;11.60;91.60;;;;;;2082385;28;20557;-68
2022/05/03 00:42:01;;;;;;;7.70;6.45;;;11.50;92.10;;;;;;2080422;28;20112;-68
2022/05/03 00:43:24;;;;;;;7.57;6.15;;;11.50;92.30;;;;;;2080290;28;20481;-68
2022/05/03 00:44:55;;;;;;;8.73;6.18;;;11.40;92.60;;;;;;2078718;28;20022;-68
2022/05/03 00:46:05;;;;;;;6.80;6.00;;;11.40;92.60;;;;;;2080779;28;20033;-68
2022/05/03 00:47:10;;;;;;;6.20;5.57;;;11.30;92.30;;;;;;2078932;28;20029;-68
2022/05/03 00:48:30;;;;;;;5.90;5.28;;;11.30;92.10;;;;;;2081909;28;20580;-69
2022/05/03 00:50:04;;;;;;;6.68;5.93;;;11.20;92.20;;;;;;2077421;28;20025;-68
2022/05/03 00:51:24;;;;;;;5.93;5.18;;;11.20;92.80;;;;;;2078430;28;20051;-68
2022/05/03 00:52:44;;;;;;;6.25;5.60;;;11.20;92.60;;;;;;2078888;28;20044;-68
2022/05/03 00:54:11;;;;;;;5.82;5.22;;;11.20;92.50;;;;;;2079066;28;20113;-68
2022/05/03 00:55:36;;;;;;;6.93;6.22;;;11.10;92.70;;;;;;2077850;28;20026;-68
2022/05/03 00:56:39;;;;;;;5.40;4.90;;;11.10;93.60;;;;;;2080088;28;20060;-68
2022/05/03 00:58:05;;;;;;;6.55;5.53;;;11.10;92.50;;;;;;2079988;28;20126;-68
2022/05/03 00:59:24;;;;;;;7.20;6.50;;;11.10;93.10;;;;;;2081518;28;20029;-68
2022/05/03 01:00:25;;;;;;;5.85;5.35;;;11.00;93.60;;;;;;2079271;28;20492;-68
2022/05/03 01:01:35;;;;;;;6.72;6.13;;;11.00;92.90;;;;;;2080022;28;20094;-68
2022/05/03 01:03:07;;;;;;;7.43;5.82;;;11.00;93.80;;;;;;2081242;28;20025;-68
2022/05/03 01:04:26;;;;;;;7.53;6.70;;;11.00;94.40;;;;;;2077875;28;20381;-68
2022/05/03 01:05:33;;;;;;;6.57;5.68;;;10.90;94.30;;;;;;2075929;28;20148;-68
2022/05/03 01:06:52;;;;;;;6.90;6.30;;;10.90;94.20;;;;;;2079864;28;20555;-68
2022/05/03 01:08:24;;;;;;;7.78;7.05;;;10.90;94.20;;;;;;2076927;28;20052;-68
2022/05/03 01:09:40;;;;;;;6.90;6.20;;;10.80;95.90;;;;;;2080059;28;20029;-68
2022/05/03 01:11:09;;;;;;;7.38;6.68;;;10.80;95.50;;;;;;2082776;28;20045;-68
2022/05/03 01:12:44;;;;;;;7.32;5.70;;;10.80;95.80;;;;;;2078596;28;20476;-68
2022/05/03 01:13:58;;;;;;;6.28;5.45;;;10.70;95.70;;;;;;2079423;28;20037;-68
2022/05/03 01:15:31;;;;;;;9.85;5.85;;;10.70;95.10;;;;;;2079976;28;20029;-68
2022/05/03 01:16:39;;;;;;;6.20;5.57;;;10.70;95.20;;;;;;2080406;28;20389;-68
2022/05/03 01:18:04;;;;;;;6.90;6.20;;;10.70;94.90;;;;;;2078696;28;20029;-68
2022/05/03 01:19:41;;;;;;;7.70;6.25;;;10.70;95.50;;;;;;2081627;28;20026;-69
2022/05/03 01:21:07;;;;;;;6.47;5.88;;;10.60;96.80;;;;;;2078621;28;20033;-69
2022/05/03 01:22:38;;;;;;;6.90;5.80;;;10.60;95.60;;;;;;2079577;28;20017;-69
2022/05/03 01:23:51;;;;;;;6.78;6.18;;;10.60;96.60;;;;;;2079172;28;20033;-69
2022/05/03 01:25:25;;;;;;;6.85;6.15;;;10.50;96.40;;;;;;2077262;28;20057;-69
2022/05/03 01:26:43;;;;;;;7.10;6.38;;;10.50;96.70;;;;;;2078477;28;20117;-69
2022/05/03 01:28:05;;;;;;;7.60;6.80;;;10.50;98.20;;;;;;2078045;28;20374;-69
2022/05/03 01:29:28;;;;;;;7.63;6.13;;;10.40;97.60;;;;;;2079416;28;20500;-69
2022/05/03 01:30:30;;;;;;;7.25;5.60;;;10.40;97.90;;;;;;2079533;28;20488;-69
2022/05/03 01:31:31;;;;;;;8.05;6.70;;;10.40;97.10;;;;;;2079763;28;20030;-69
2022/05/03 01:32:33;;;;;;;7.25;6.65;;;10.40;97.20;;;;;;2076933;28;20520;-69
2022/05/03 01:33:38;;;;;;;7.05;6.38;;;10.40;97.80;;;;;;2078888;28;20035;-69
2022/05/03 01:34:44;;;;;;;7.68;6.47;;;10.40;97.70;;;;;;2076677;28;20021;-69
2022/05/03 01:35:51;;;;;;;6.90;6.20;;;10.40;97.80;;;;;;2079422;28;20053;-69
2022/05/03 01:37:00;;;;;;;6.60;5.40;;;10.40;98.10;;;;;;2080215;28;20060;-69
2022/05/03 01:38:45;;;;;;;6.80;5.95;;;10.40;97.60;;;;;;2078299;28;20021;-69
2022/05/03 01:40:05;;;;;;;6.93;5.68;;;10.40;98.40;;;;;;2076249;28;20092;-69
2022/05/03 01:41:14;;;;;;;5.88;5.38;;;10.30;98.20;;;;;;2079424;28;20041;-69
2022/05/03 01:42:43;;;;;;;6.75;6.05;;;10.30;97.80;;;;;;2082134;28;20038;-69
2022/05/03 01:43:59;;;;;;;8.07;7.38;;;10.30;98.80;;;;;;2078755;28;20731;-69
2022/05/03 01:45:04;;;;;;;7.75;6.95;;;10.20;99.90;;;;;;2077467;28;20021;-69
2022/05/03 01:46:16;;;;;;;7.70;6.90;;;10.20;99.90;;;;;;2078470;28;20029;-69
2022/05/03 01:47:23;;;;;;;6.78;6.07;;;10.20;99.90;;;;;;2079604;28;20487;-69
2022/05/03 01:50:20;;;;;;;6.30;5.68;;;10.20;99.20;;;;;;2077888;28;20477;-69
2022/05/03 01:51:36;;;;;;;7.97;6.13;;;10.10;99.80;;;;;;2079239;28;20366;-69
2022/05/03 01:53:13;;;;;;;6.65;5.63;;;10.10;99.70;;;;;;2079156;28;20032;-69
2022/05/03 01:54:52;;;;;;;9.57;5.70;;;10.10;99.90;;;;;;2079305;28;20022;-69
2022/05/03 01:56:34;;;;;;;7.63;5.82;;;10.00;99.90;;;;;;2079547;28;20472;-69
2022/05/03 01:57:53;;;;;;;7.55;6.85;;;10.00;99.90;;;;;;2076027;28;20548;-69
2022/05/03 01:59:21;;;;;;;7.03;6.32;;;10.00;99.80;;;;;;2080070;28;20052;-69
2022/05/03 02:00:22;;;;;;;5.60;4.75;;;9.90;99.90;;;;;;2079631;28;20025;-69
2022/05/03 02:01:32;;;;;;;6.40;5.53;;;9.90;99.50;;;;;;2075744;28;20045;-69
2022/05/03 02:02:54;;;;;;;7.00;6.35;;;9.90;99.60;;;;;;2079654;28;20025;-69
2022/05/03 02:04:07;;;;;;;7.47;5.93;;;9.90;99.90;;;;;;2077275;28;20022;-69
2022/05/03 02:05:20;;;;;;;7.93;6.00;;;9.90;99.90;;;;;;2081899;28;20108;-69
2022/05/03 02:06:35;;;;;;;8.63;6.13;;;9.90;99.90;;;;;;2076934;28;20375;-69
2022/05/03 02:07:57;;;;;;;6.78;6.18;;;9.90;99.90;;;;;;2076659;28;20131;-69
2022/05/03 02:09:05;;;;;;;8.07;6.32;;;9.90;99.90;;;;;;2077130;28;20026;-69
2022/05/03 02:10:22;;;;;;;6.05;5.40;;;9.80;99.90;;;;;;2077627;28;20424;-69
2022/05/03 02:11:54;;;;;;;6.82;6.18;;;9.80;99.90;;;;;;2077019;28;20025;-69
2022/05/03 02:13:00;;;;;;;7.63;6.43;;;9.80;99.90;;;;;;2077900;28;20033;-69
2022/05/03 02:15:39;;;;;;;7.07;6.38;;;9.70;99.90;;;;;;2076969;28;20381;-69
2022/05/03 02:16:48;;;;;;;6.40;5.80;;;9.70;99.90;;;;;;2077497;28;20037;-69
2022/05/03 02:17:57;;;;;;;7.25;6.30;;;9.70;99.90;;;;;;2078925;28;20022;-69
2022/05/03 02:19:29;;;;;;;6.97;6.32;;;9.70;99.90;;;;;;2076533;28;20568;-69
2022/05/03 02:20:51;;;;;;;7.05;6.07;;;9.70;99.90;;;;;;2079441;28;20029;-69
2022/05/03 02:22:26;;;;;;;7.65;6.53;;;9.60;99.90;;;;;;2078059;28;20142;-69
2022/05/03 02:23:35;;;;;;;6.55;5.95;;;9.60;99.90;;;;;;2080220;28;20029;-69
2022/05/03 02:24:50;;;;;;;7.63;6.30;;;9.60;99.90;;;;;;2079427;28;20033;-69
2022/05/03 02:26:28;;;;;;;7.85;7.10;;;9.60;99.90;;;;;;2075561;28;20531;-69
2022/05/03 02:27:31;;;;;;;6.50;5.90;;;9.60;99.90;;;;;;2079679;28;20401;-69
2022/05/03 02:28:39;;;;;;;8.25;6.35;;;9.50;99.90;;;;;;2081226;28;20393;-69
2022/05/03 02:29:48;;;;;;;7.43;5.95;;;9.50;99.90;;;;;;2076305;28;20610;-69
2022/05/03 02:30:51;;;;;;;6.20;5.70;;;9.50;99.90;;;;;;2079517;28;20036;-69
2022/05/03 02:32:08;;;;;;;7.20;5.80;;;9.50;99.90;;;;;;2079788;28;21131;-69
2022/05/03 02:33:19;;;;;;;9.25;6.18;;;9.50;99.90;;;;;;2078225;28;20103;-69
2022/05/03 02:34:48;;;;;;;6.25;5.65;;;9.50;99.90;;;;;;2078889;28;20045;-69
2022/05/03 02:35:56;;;;;;;7.30;5.85;;;9.50;99.90;;;;;;2077232;28;20030;-69
2022/05/03 02:37:09;;;;;;;6.97;6.28;;;9.50;99.90;;;;;;2078766;28;20026;-69
2022/05/03 02:38:12;;;;;;;6.15;5.55;;;9.40;99.90;;;;;;2079423;28;20014;-69
2022/05/03 02:39:17;;;;;;;6.70;6.00;;;9.40;99.90;;;;;;2080754;28;20076;-69
2022/05/03 02:40:21;;;;;;;7.45;6.55;;;9.40;99.90;;;;;;2080489;28;20037;-69
2022/05/03 02:41:24;;;;;;;7.05;6.35;;;9.40;99.90;;;;;;2076050;28;20033;-69
2022/05/03 02:42:25;;;;;;;6.72;6.15;;;9.40;99.90;;;;;;2080541;28;20047;-69
2022/05/03 02:43:27;;;;;;;6.93;5.65;;;9.40;99.90;;;;;;2079948;28;20180;-69
2022/05/03 02:44:30;;;;;;;7.00;6.40;;;9.40;99.90;;;;;;2082185;28;20033;-69
2022/05/03 02:45:38;;;;;;;6.18;5.57;;;9.40;99.90;;;;;;2079192;28;20433;-69
2022/05/03 02:47:08;;;;;;;8.48;6.22;;;9.40;99.90;;;;;;2076735;28;20034;-69
2022/05/03 02:48:14;;;;;;;;;;;9.30;99.90;;;;;;2078447;28;20048;-69
2022/05/03 02:49:50;;;;;;;7.15;6.45;;;9.20;99.90;;;;;;2079304;28;19989;-69
2022/05/03 02:50:53;;;;;;;7.82;6.10;;;9.20;99.90;;;;;;2077457;28;20025;-69
2022/05/03 02:52:11;;;;;;;8.10;6.65;;;9.20;99.90;;;;;;2082205;28;20481;-69
2022/05/03 02:53:29;;;;;;;7.40;6.05;;;9.20;99.90;;;;;;2080716;28;20034;-69
2022/05/03 02:54:48;;;;;;;7.07;5.32;;;9.20;99.90;;;;;;2081926;28;20022;-69
2022/05/03 02:55:51;;;;;;;6.32;5.72;;;9.20;99.90;;;;;;2079512;28;20442;-69
2022/05/03 02:57:15;;;;;;;6.43;5.88;;;9.10;99.90;;;;;;2080391;28;20045;-69
2022/05/03 02:58:37;;;;;;;6.45;5.85;;;9.10;99.90;;;;;;2080444;28;20083;-69
2022/05/03 03:01:49;;;;;;;6.43;5.82;;;9.10;99.90;;;;;;2079758;28;20029;-69
2022/05/03 03:03:05;;;;;;;7.15;6.43;;;9.10;99.90;;;;;;2079775;28;20071;-69
2022/05/03 03:04:32;;;;;;;6.72;6.10;;;9.10;99.90;;;;;;2079020;28;20018;-69
2022/05/03 03:05:41;;;;;;;7.88;5.47;;;9.00;99.90;;;;;;2078227;28;20024;-69
2022/05/03 03:06:42;;;;;;;6.47;5.75;;;9.00;99.90;;;;;;2080768;28;20092;-69
2022/05/03 03:07:53;;;;;;;7.25;6.30;;;9.00;99.90;;;;;;2077508;28;20412;-69
2022/05/03 03:08:54;;;;;;;8.10;6.78;;;9.00;99.90;;;;;;2080908;28;20091;-69
2022/05/03 03:10:05;;;;;;;7.28;6.45;;;9.00;99.90;;;;;;2081074;28;20026;-69
2022/05/03 03:11:09;;;;;;;6.68;6.07;;;9.00;99.90;;;;;;2079031;28;20026;-69
2022/05/03 03:12:29;;;;;;;6.63;6.03;;;9.00;99.90;;;;;;2080963;28;20026;-69
2022/05/03 03:14:07;;;;;;;6.00;5.30;;;9.00;99.90;;;;;;2078787;28;20060;-69
2022/05/03 03:15:09;;;;;;;5.32;4.82;;;9.00;99.90;;;;;;2083967;28;20500;-69
2022/05/03 03:16:14;;;;;;;8.02;6.75;;;8.90;99.90;;;;;;2082174;28;20115;-69
2022/05/03 03:17:23;;;;;;;6.72;5.55;;;8.90;99.90;;;;;;2080726;28;20432;-69
2022/05/03 03:18:25;;;;;;;5.85;5.25;;;8.90;99.90;;;;;;2079923;28;20027;-69
2022/05/03 03:20:05;;;;;;;8.30;6.13;;;8.90;99.90;;;;;;2083225;28;20117;-69
2022/05/03 03:21:11;;;;;;;8.60;6.57;;;8.90;99.90;;;;;;2079610;28;20087;-69
2022/05/03 03:22:13;;;;;;;7.18;6.47;;;8.90;99.90;;;;;;2080764;28;20029;-69
2022/05/03 03:23:15;;;;;;;6.35;5.70;;;8.90;99.90;;;;;;2079949;28;20020;-69
2022/05/03 03:24:19;;;;;;;8.05;6.07;;;8.80;99.90;;;;;;2080913;28;20025;-69
2022/05/03 03:25:22;;;;;;;7.57;6.22;;;8.90;99.90;;;;;;2078411;28;20367;-69
2022/05/03 03:26:26;;;;;;;10.13;6.45;;;8.80;99.90;;;;;;2081101;28;20470;-69
2022/05/03 03:27:28;;;;;;;6.28;5.68;;;8.90;99.90;;;;;;2076912;28;20049;-69
2022/05/03 03:28:29;;;;;;;7.50;6.30;;;8.80;99.90;;;;;;2080777;28;20021;-69
2022/05/03 03:29:31;;;;;;;7.70;6.80;;;8.80;99.90;;;;;;2081542;28;20071;-69
2022/05/03 03:30:32;;;;;;;6.60;6.00;;;8.80;99.90;;;;;;2081453;28;20018;-69
2022/05/03 03:31:34;;;;;;;7.97;6.05;;;8.80;99.90;;;;;;2080429;28;20474;-69
2022/05/03 03:32:38;;;;;;;8.00;6.57;;;8.80;99.90;;;;;;2080733;28;20017;-69
2022/05/03 03:33:41;;;;;;;6.72;6.13;;;8.80;99.90;;;;;;2080944;28;20057;-69
2022/05/03 03:34:42;;;;;;;6.50;5.95;;;8.80;99.90;;;;;;2081061;28;20045;-69
2022/05/03 03:35:45;;;;;;;6.43;5.85;;;8.70;99.90;;;;;;2080575;28;20017;-69
2022/05/03 03:36:49;;;;;;;7.07;6.38;;;8.80;99.90;;;;;;2084555;28;20029;-69
2022/05/03 03:37:51;;;;;;;6.78;6.07;;;8.80;99.90;;;;;;2077070;28;20026;-69
2022/05/03 03:38:51;;;;;;;6.80;6.10;;;8.70;99.90;;;;;;2081080;28;20030;-69
2022/05/03 03:39:52;;;;;;;7.88;6.70;;;8.70;99.90;;;;;;2083055;28;20060;-69
2022/05/03 03:40:53;;;;;;;7.85;6.18;;;8.70;99.90;;;;;;2080871;28;20029;-69
2022/05/03 03:41:53;;;;;;;6.40;5.60;;;8.70;99.90;;;;;;2082056;28;20041;-69
2022/05/03 03:42:54;;;;;;;6.75;6.05;;;8.70;99.90;;;;;;2081404;28;20036;-69
2022/05/03 03:43:54;;;;;;;7.40;6.70;;;8.70;99.90;;;;;;2078080;28;20029;-69
2022/05/03 03:45:00;;;;;;;8.60;6.05;;;8.70;99.90;;;;;;2080854;28;20069;-69
2022/05/03 03:46:01;;;;;;;6.80;6.10;;;8.70;99.90;;;;;;2080204;28;20036;-69
2022/05/03 03:47:03;;;;;;;8.20;7.13;;;8.70;99.90;;;;;;2080690;28;20040;-70
2022/05/03 03:48:05;;;;;;;7.65;6.50;;;8.70;99.90;;;;;;2079954;28;20037;-69
2022/05/03 03:49:06;;;;;;;7.28;6.30;;;8.70;99.90;;;;;;2082194;28;20033;-69
2022/05/03 03:50:08;;;;;;;6.57;5.97;;;8.60;99.90;;;;;;2081101;28;20033;-69
2022/05/03 03:51:09;;;;;;;6.35;5.78;;;8.60;99.90;;;;;;2081704;28;20032;-69
2022/05/03 03:52:11;;;;;;;6.65;5.95;;;8.60;99.90;;;;;;2080977;28;20036;-69
2022/05/03 03:53:14;;;;;;;6.90;6.20;;;8.60;99.90;;;;;;2079352;28;20076;-69
2022/05/03 03:54:15;;;;;;;5.45;4.97;;;8.60;99.90;;;;;;2079708;28;20124;-69
2022/05/03 03:55:15;;;;;;;7.22;6.63;;;8.60;99.90;;;;;;2079881;28;20029;-69
2022/05/03 03:56:16;;;;;;;7.07;5.78;;;8.60;99.90;;;;;;2080253;28;20326;-69
2022/05/03 03:57:20;;;;;;;8.02;6.97;;;8.60;99.90;;;;;;2082636;28;20377;-69
2022/05/03 03:58:21;;;;;;;7.15;6.40;;;8.60;99.90;;;;;;2079432;28;20551;-69
2022/05/03 03:59:22;;;;;;;6.80;6.18;;;8.60;99.90;;;;;;2079923;28;20524;-69
2022/05/03 04:00:24;;;;;;;6.93;5.93;;;8.50;99.90;;;;;;2079778;28;20032;-69
2022/05/03 04:01:25;;;;;;;8.27;7.07;;;8.50;99.90;;;;;;2080693;28;20057;-69
2022/05/03 04:02:26;;;;;;;6.60;6.00;;;8.50;99.90;;;;;;2081136;28;20026;-69
2022/05/03 04:03:27;;;;;;;7.57;6.22;;;8.50;99.90;;;;;;2082566;28;20217;-69
2022/05/03 04:04:34;;;;;;;7.45;6.65;;;8.50;99.90;;;;;;2081515;28;20026;-69
2022/05/03 04:05:35;;;;;;;8.95;6.85;;;8.50;99.90;;;;;;2077376;28;20033;-69
2022/05/03 04:06:36;;;;;;;6.22;5.72;;;8.50;99.90;;;;;;2079583;28;20052;-70
2022/05/03 04:07:37;;;;;;;7.53;6.82;;;8.50;99.90;;;;;;2080942;28;20025;-69
2022/05/03 04:08:37;;;;;;;6.38;5.78;;;8.50;99.90;;;;;;2082841;28;20032;-69
2022/05/03 04:09:38;;;;;;;8.20;7.32;;;8.50;99.90;;;;;;2081154;28;20053;-69
2022/05/03 04:10:38;;;;;;;7.43;6.72;;;8.50;99.90;;;;;;2080247;28;20026;-69
2022/05/03 04:11:46;;;;;;;7.32;6.63;;;8.50;99.90;;;;;;2079635;28;20033;-69
2022/05/03 04:12:47;;;;;;;7.90;6.70;;;8.50;99.90;;;;;;2080000;28;20049;-69
2022/05/03 04:13:48;;;;;;;7.53;6.78;;;8.50;99.90;;;;;;2079785;28;20029;-69
2022/05/03 04:14:48;;;;;;;7.28;6.35;;;8.40;99.90;;;;;;2079491;28;20060;-69
2022/05/03 04:15:51;;;;;;;8.38;7.13;;;8.40;99.90;;;;;;2080031;28;20029;-69
2022/05/03 04:16:52;;;;;;;7.20;6.50;;;8.40;99.90;;;;;;2080059;28;20026;-69
2022/05/03 04:17:53;;;;;;;6.95;6.35;;;8.40;99.90;;;;;;2083626;28;20027;-69
2022/05/03 04:18:53;;;;;;;9.00;6.82;;;8.40;99.90;;;;;;2083098;28;20032;-69
2022/05/03 04:19:54;;;;;;;7.60;6.90;;;8.40;99.90;;;;;;2080383;28;20034;-69
2022/05/03 04:20:54;;;;;;;8.38;6.65;;;8.40;99.90;;;;;;2081773;28;20022;-69
2022/05/03 04:21:55;;;;;;;6.03;5.53;;;8.40;99.90;;;;;;2081304;28;20036;-69
2022/05/03 04:22:56;;;;;;;7.13;6.50;;;8.40;99.90;;;;;;2079214;28;20152;-69
2022/05/03 04:23:56;;;;;;;8.25;7.03;;;8.40;99.90;;;;;;2080062;28;20056;-69
2022/05/03 04:24:59;;;;;;;7.45;6.75;;;8.40;99.90;;;;;;2080615;28;20029;-69
2022/05/03 04:25:59;;;;;;;7.93;7.13;;;8.40;99.90;;;;;;2079606;28;20021;-69
2022/05/03 04:27:00;;;;;;;7.40;6.70;;;8.40;99.90;;;;;;2080527;28;20034;-69
2022/05/03 04:28:01;;;;;;;8.20;7.40;;;8.40;99.90;;;;;;2080347;28;20033;-69
2022/05/03 04:29:03;;;;;;;7.70;6.97;;;8.40;99.90;;;;;;2080673;28;20397;-69
2022/05/03 04:30:04;;;;;;;7.22;6.35;;;8.40;99.90;;;;;;2080216;28;20061;-69
2022/05/03 04:31:05;;;;;;;7.40;6.57;;;8.40;99.90;;;;;;2077523;28;20025;-69
2022/05/03 04:32:06;;;;;;;7.30;6.68;;;8.40;99.90;;;;;;2080122;28;20504;-69
2022/05/03 04:33:07;;;;;;;7.63;6.63;;;8.40;99.90;;;;;;2080397;28;20389;-69
2022/05/03 04:34:08;;;;;;;7.70;6.75;;;8.40;99.90;;;;;;2080177;28;20033;-69
2022/05/03 04:35:09;;;;;;;7.45;6.75;;;8.40;99.90;;;;;;2082915;28;20045;-69
2022/05/03 04:36:09;;;;;;;7.00;6.35;;;8.40;99.90;;;;;;2079695;28;20026;-69
2022/05/03 04:37:10;;;;;;;7.78;7.07;;;8.50;99.90;;;;;;2078862;28;20021;-69
2022/05/03 04:38:11;;;;;;;7.60;6.80;;;8.50;99.90;;;;;;2079402;28;20034;-69
2022/05/03 04:39:11;;;;;;;9.57;7.75;;;8.50;99.90;;;;;;2082211;28;20033;-69
2022/05/03 04:40:12;;;;;;;8.98;8.05;;;8.50;99.90;;;;;;2077927;28;20049;-69
2022/05/03 04:41:12;;;;;;;8.13;7.32;;;8.50;99.90;;;;;;2080070;28;20152;-69
2022/05/03 04:42:13;;;;;;;9.52;7.53;;;8.50;99.90;;;;;;2078747;28;20083;-69
2022/05/03 04:43:13;;;;;;;11.50;8.32;;;8.40;99.90;;;;;;2080227;28;20594;-69
2022/05/03 04:44:14;;;;;;;8.43;7.63;;;8.50;99.90;;;;;;2080863;28;20057;-69
2022/05/03 04:45:14;;;;;;;6.63;5.93;;;8.50;99.90;;;;;;2079931;28;20565;-69
2022/05/03 04:46:15;;;;;;;9.15;7.78;;;8.50;99.90;;;;;;2079076;28;20030;-69
2022/05/03 04:47:16;;;;;;;7.45;6.75;;;8.50;99.90;;;;;;2079854;28;20095;-69
2022/05/03 04:48:17;;;;;;;8.45;7.45;;;8.50;99.90;;;;;;2079719;28;20092;-69
2022/05/03 04:49:17;;;;;;;7.57;6.72;;;8.50;99.90;;;;;;2079251;28;20068;-69
2022/05/03 04:50:18;;;;;;;8.23;7.38;;;8.50;99.90;;;;;;2079212;28;20025;-69
2022/05/03 04:51:23;;;;;;;6.60;6.00;;;8.60;99.90;;;;;;2078508;28;20108;-69
2022/05/03 04:52:24;;;;;;;8.13;7.25;;;8.60;99.90;;;;;;2079023;28;20362;-69
2022/05/03 04:53:25;;;;;;;7.55;6.70;;;8.50;99.90;;;;;;2079690;28;20029;-69
2022/05/03 04:54:25;;;;;;;7.28;6.57;;;8.60;99.90;;;;;;2079378;28;20029;-69
2022/05/03 04:55:27;;;;;;;8.60;6.90;;;8.60;99.90;;;;;;2077064;28;20033;-69
2022/05/03 04:56:27;;;;;;;9.65;7.30;;;8.60;99.90;;;;;;2078718;28;20109;-69
2022/05/03 04:57:28;;;;;;;7.65;6.82;;;8.60;99.90;;;;;;2079186;28;20017;-69
2022/05/03 04:58:28;;;;;;;7.95;7.10;;;8.60;99.90;;;;;;2078047;28;20017;-69
2022/05/03 04:59:29;;;;;;;7.80;7.10;;;8.60;99.90;;;;;;2079457;28;20117;-69
2022/05/03 05:00:30;;;;;;;9.50;8.00;;;8.60;99.90;;;;;;2079510;28;20030;-69
2022/05/03 05:01:31;;;;;;;10.02;7.82;;;8.70;99.90;;;;;;2078296;28;20358;-69
2022/05/03 05:02:32;;;;;;;9.15;6.78;;;8.70;99.90;;;;;;2079700;28;20018;-69
2022/05/03 05:03:33;;;;;;;7.10;6.40;;;8.70;99.90;;;;;;2080924;28;20471;-69
2022/05/03 05:04:33;;;;;;;8.27;7.43;;;8.70;99.90;;;;;;2079909;28;20478;-69
2022/05/03 05:05:34;;;;;;;11.10;7.90;;;8.70;99.90;;;;;;2078989;28;20095;-69
2022/05/03 05:06:34;;;;;;;8.68;6.88;;;8.70;99.90;;;;;;2079561;28;20097;-69
2022/05/03 05:07:35;;;;;;;9.98;7.50;;;8.70;99.90;;;;;;2079371;28;20591;-69
2022/05/03 05:08:37;;;;;;;9.25;8.35;;;8.70;99.90;;;;;;2079757;28;20052;-69
2022/05/03 05:10:23;;;;;;;8.25;7.40;;;8.80;99.90;;;;;;2077401;28;20075;-69
2022/05/03 05:10:58;;;;;;;8.23;7.43;;;8.80;99.90;;;;;;2078199;28;20451;-69
2022/05/03 05:11:59;;;;;;;10.40;7.57;;;8.80;99.90;;;;;;2080559;28;20043;-69
2022/05/03 05:13:01;;;;;;;8.65;7.47;;;8.80;99.90;;;;;;2079750;28;20030;-69
2022/05/03 05:14:01;;;;;;;9.00;7.88;;;8.90;99.90;;;;;;2079022;28;20700;-69
2022/05/03 05:15:02;;;;;;;8.27;7.53;;;8.90;99.90;;;;;;2077007;28;20057;-69
2022/05/03 05:16:04;;;;;;;10.93;8.00;;;8.90;99.90;;;;;;2078325;28;20013;-69
2022/05/03 05:17:04;;;;;;;8.95;8.05;;;8.90;99.90;;;;;;2078788;28;20032;-69
2022/05/03 05:18:05;;;;;;;8.27;7.45;;;9.00;99.90;;;;;;2079105;28;20036;-69
2022/05/03 05:19:05;;;;;;;8.43;7.63;;;9.00;99.90;;;;;;2079212;28;20024;-69
2022/05/03 05:20:07;;;;;;;8.15;7.38;;;9.00;99.90;;;;;;2079227;28;20056;-69
2022/05/03 05:21:07;;;;;;;8.45;7.57;;;9.00;99.90;;;;;;2079146;28;20104;-69
2022/05/03 05:22:08;;;;;;;7.60;6.90;;;9.10;99.90;;;;;;2078175;28;20029;-69
2022/05/03 05:23:08;;;;;;;8.07;7.13;;;9.10;99.90;;;;;;2078016;28;20033;-69
2022/05/03 05:24:11;;;;;;;8.68;7.35;;;9.10;99.90;;;;;;2079117;28;20029;-69
2022/05/03 05:25:13;;;;;;;9.48;7.80;;;9.20;99.90;;;;;;2078296;28;20381;-69
2022/05/03 05:26:13;;;;;;;7.95;7.18;;;9.20;99.90;;;;;;2077923;28;20059;-69
2022/05/03 05:27:14;;;;;;;7.53;6.53;;;9.30;99.90;;;;;;2076789;28;20025;-69
2022/05/03 05:28:15;;;;;;;10.00;7.90;;;9.30;99.90;;;;;;2080304;28;20025;-69
2022/05/03 05:29:15;;;;;;;13.05;7.82;;;9.40;99.90;;;;;;2078842;28;20033;-69
2022/05/03 05:30:16;;;;;;;9.32;8.40;;;9.40;99.90;;;;;;2079450;28;20025;-69
2022/05/03 05:31:17;;;;;;;9.93;7.22;;;9.50;99.90;;;;;;2079725;28;20075;-69
2022/05/03 05:32:17;;;;;;;9.13;7.95;;;9.60;99.90;;;;;;2078690;28;20553;-69
2022/05/03 05:33:18;;;;;;;8.02;6.85;;;9.60;99.90;;;;;;2078843;28;20092;-69
2022/05/03 05:34:18;;;;;;;10.68;7.78;;;9.70;99.90;;;;;;2076866;28;20032;-69
2022/05/03 05:35:19;;;;;;;10.63;7.72;;;9.70;99.90;;;;;;2077945;28;20017;-69
2022/05/03 05:36:20;;;;;;;11.00;7.80;;;9.80;99.90;;;;;;2073055;28;20141;-69
2022/05/03 05:37:20;;;;;;;10.90;7.57;;;9.90;99.90;;;;;;2079610;28;20056;-69
2022/05/03 05:38:21;;;;;;;7.60;6.75;;;9.90;99.90;;;;;;2080247;28;20032;-69
2022/05/03 05:39:22;;;;;;;8.48;7.20;;;10.00;99.90;;;;;;2078480;28;20021;-69
2022/05/03 05:40:22;;;;;;;7.93;7.10;;;10.00;99.90;;;;;;2078481;28;20021;-69
2022/05/03 05:41:23;;;;;;;7.65;6.95;;;10.10;99.90;;;;;;2078849;28;20033;-69
2022/05/03 05:42:23;;;;;;;13.63;7.25;;;10.20;99.90;;;;;;2079150;28;20661;-69
2022/05/03 05:43:24;;;;;;;7.40;6.53;;;10.20;99.90;;;;;;2079676;28;20096;-69
2022/05/03 05:44:25;;;;;;;8.05;6.85;;;10.30;99.90;;;;;;2079178;28;20026;-69
2022/05/03 05:45:26;;;;;;;8.15;6.88;;;10.30;99.90;;;;;;2075099;28;20471;-69
2022/05/03 05:46:26;;;;;;;10.10;7.15;;;10.40;99.90;;;;;;2078371;28;20037;-69
2022/05/03 05:47:27;;;;;;;8.32;7.32;;;10.50;99.90;;;;;;2076547;28;20021;-69
2022/05/03 05:48:28;;;;;;;8.07;7.30;;;10.50;99.90;;;;;;2075808;28;20128;-69
2022/05/03 05:49:28;;;;;;;10.38;6.95;;;10.60;99.90;;;;;;2076710;28;20045;-69
2022/05/03 05:50:29;;;;;;;7.80;7.05;;;10.60;99.90;;;;;;2078936;28;21640;-69
2022/05/03 05:51:29;;;;;;;7.88;7.18;;;10.70;99.90;;;;;;2076828;28;20428;-69
2022/05/03 05:53:49;;;;;;;7.38;6.63;;;10.80;99.90;;;;;;2077719;28;20034;-69
2022/05/03 05:54:50;;;;;;;7.85;7.07;;;10.90;99.90;;;;;;2076786;28;20026;-69
2022/05/03 05:55:50;;;;;;;7.25;6.55;;;11.00;99.90;;;;;;2078696;28;20078;-69
2022/05/03 05:56:51;;;;;;;10.02;6.68;;;11.00;99.90;;;;;;2078637;28;20018;-69
2022/05/03 05:57:52;;;;;;;7.93;6.50;;;11.10;99.90;;;;;;2076815;28;20033;-69
2022/05/03 05:58:52;;;;;;;9.43;6.32;;;11.20;99.90;;;;;;2077963;28;20112;-69
2022/05/03 05:59:52;;;;;;;7.35;6.00;;;11.30;99.90;;;;;;2076931;28;20116;-69
2022/05/03 06:00:53;;;;;;;8.40;6.43;;;11.30;99.90;;;;;;2078861;28;20083;-69
2022/05/03 06:01:54;;;;;;;6.88;5.68;;;11.40;99.90;;;;;;2078082;28;20033;-69
2022/05/03 06:02:54;;;;;;;8.52;6.40;;;11.50;99.90;;;;;;2079086;28;20038;-69